Terminal Aerodrome Forecast
Issued by NWS

Home | Current Version | Previous Version | Text Only | Print | Product List | Glossary On
Versions: 1 2 3 4 5 6 7 8 9 10 11 12 13 14 15
000
FTAK31 PAFA 160539
TAFAGA
TAF
PAGA 160539Z 1606/1706 VRB05KT P6SM FEW060 BKN110
     FM160900 VRB02KT P6SM VCSH OVC050
     FM161200 VRB03KT 3SM -SHSN BR OVC035
     FM161800 01004KT P6SM VCSH SCT015 BKN110
     FM170000 01004KT P6SM BKN110=

USA.gov is the U.S. government's official web portal to all federal, state and local government web resources and services.